sensor_id;sensor_type;location;lat;lon;timestamp;pressure;altitude;pressure_sealevel;temperature;humidity
26807;BME280;14380;49.910;6.792;2023-05-01T00:01:05;98861.72;;;9.73;100.00
26807;BME280;14380;49.910;6.792;2023-05-01T00:03:31;98856.84;;;9.65;100.00
26807;BME280;14380;49.910;6.792;2023-05-01T00:06:00;98851.97;;;9.75;100.00
26807;BME280;14380;49.910;6.792;2023-05-01T00:08:27;98854.69;;;9.73;100.00
26807;BME280;14380;49.910;6.792;2023-05-01T00:10:54;98843.44;;;9.87;100.00
26807;BME280;14380;49.910;6.792;2023-05-01T00:13:20;98846.63;;;9.76;100.00
26807;BME280;14380;49.910;6.792;2023-05-01T00:15:48;98840.03;;;9.67;100.00
26807;BME280;14380;49.910;6.792;2023-05-01T00:18:15;98842.41;;;9.55;100.00
26807;BME280;14380;49.910;6.792;2023-05-01T00:20:42;98832.59;;;9.58;100.00
26807;BME280;14380;49.910;6.792;2023-05-01T00:23:09;98833.34;;;9.43;100.00
26807;BME280;14380;49.910;6.792;2023-05-01T00:25:36;98835.00;;;9.63;100.00
26807;BME280;14380;49.910;6.792;2023-05-01T00:28:03;98832.50;;;9.42;100.00
26807;BME280;14380;49.910;6.792;2023-05-01T00:30:31;98829.25;;;9.37;100.00
26807;BME280;14380;49.910;6.792;2023-05-01T00:32:58;98826.97;;;9.29;100.00
26807;BME280;14380;49.910;6.792;2023-05-01T00:35:26;98818.00;;;9.51;100.00
26807;BME280;14380;49.910;6.792;2023-05-01T00:37:52;98825.81;;;9.35;100.00
26807;BME280;14380;49.910;6.792;2023-05-01T00:40:20;98812.44;;;9.57;100.00
26807;BME280;14380;49.910;6.792;2023-05-01T00:42:47;98816.53;;;9.45;100.00
26807;BME280;14380;49.910;6.792;2023-05-01T00:45:13;98810.06;;;9.33;100.00
26807;BME280;14380;49.910;6.792;2023-05-01T00:47:40;98809.25;;;9.33;100.00
26807;BME280;14380;49.910;6.792;2023-05-01T00:50:07;98811.94;;;9.31;100.00
26807;BME280;14380;49.910;6.792;2023-05-01T00:52:34;98805.91;;;9.47;100.00
26807;BME280;14380;49.910;6.792;2023-05-01T00:55:01;98799.31;;;9.56;100.00
26807;BME280;14380;49.910;6.792;2023-05-01T00:57:30;98798.69;;;9.33;100.00
26807;BME280;14380;49.910;6.792;2023-05-01T00:59:57;98794.44;;;9.48;100.00
26807;BME280;14380;49.910;6.792;2023-05-01T01:02:24;98795.84;;;9.55;100.00
26807;BME280;14380;49.910;6.792;2023-05-01T01:04:51;98784.59;;;9.34;100.00
26807;BME280;14380;49.910;6.792;2023-05-01T01:07:21;98792.72;;;9.29;100.00
26807;BME280;14380;49.910;6.792;2023-05-01T01:10:01;98783.50;;;9.56;100.00
26807;BME280;14380;49.910;6.792;2023-05-01T01:12:38;98789.09;;;9.49;100.00
26807;BME280;14380;49.910;6.792;2023-05-01T01:15:18;98785.84;;;9.62;100.00
26807;BME280;14380;49.910;6.792;2023-05-01T01:17:51;98774.34;;;9.63;100.00
26807;BME280;14380;49.910;6.792;2023-05-01T01:20:35;98782.34;;;9.44;100.00
26807;BME280;14380;49.910;6.792;2023-05-01T01:23:50;98774.81;;;9.53;100.00
26807;BME280;14380;49.910;6.792;2023-05-01T01:26:43;98776.69;;;9.34;100.00
26807;BME280;14380;49.910;6.792;2023-05-01T01:32:16;98775.28;;;9.27;100.00
26807;BME280;14380;49.910;6.792;2023-05-01T01:34:54;98778.22;;;9.20;100.00
26807;BME280;14380;49.910;6.792;2023-05-01T01:37:30;98778.59;;;9.13;100.00
26807;BME280;14380;49.910;6.792;2023-05-01T01:40:01;98777.44;;;9.18;100.00
26807;BME280;14380;49.910;6.792;2023-05-01T01:42:31;98778.38;;;9.00;100.00
26807;BME280;14380;49.910;6.792;2023-05-01T01:45:01;98775.78;;;8.98;100.00
26807;BME280;14380;49.910;6.792;2023-05-01T01:47:32;98770.31;;;8.84;100.00
26807;BME280;14380;49.910;6.792;2023-05-01T01:50:03;98769.97;;;8.91;100.00
26807;BME280;14380;49.910;6.792;2023-05-01T01:52:34;98770.50;;;8.81;100.00
26807;BME280;14380;49.910;6.792;2023-05-01T01:55:04;98764.47;;;8.59;100.00
26807;BME280;14380;49.910;6.792;2023-05-01T01:57:34;98764.91;;;8.87;100.00
26807;BME280;14380;49.910;6.792;2023-05-01T02:00:02;98762.91;;;8.55;100.00
26807;BME280;14380;49.910;6.792;2023-05-01T02:02:34;98756.50;;;8.61;100.00
26807;BME280;14380;49.910;6.792;2023-05-01T02:05:05;98758.56;;;8.35;100.00
26807;BME280;14380;49.910;6.792;2023-05-01T02:07:33;98752.84;;;8.44;100.00
26807;BME280;14380;49.910;6.792;2023-05-01T02:10:01;98751.59;;;8.53;100.00
26807;BME280;14380;49.910;6.792;2023-05-01T02:12:30;98743.97;;;8.66;100.00
26807;BME280;14380;49.910;6.792;2023-05-01T02:14:57;98752.38;;;8.55;100.00
26807;BME280;14380;49.910;6.792;2023-05-01T02:17:25;98750.97;;;8.46;100.00
26807;BME280;14380;49.910;6.792;2023-05-01T02:19:52;98747.97;;;7.97;100.00
26807;BME280;14380;49.910;6.792;2023-05-01T02:22:23;98745.16;;;8.21;100.00
26807;BME280;14380;49.910;6.792;2023-05-01T02:24:52;98747.50;;;8.08;100.00
26807;BME280;14380;49.910;6.792;2023-05-01T02:27:22;98750.19;;;8.06;100.00
26807;BME280;14380;49.910;6.792;2023-05-01T02:29:50;98743.31;;;8.03;100.00
26807;BME280;14380;49.910;6.792;2023-05-01T02:32:17;98744.53;;;8.15;100.00
26807;BME280;14380;49.910;6.792;2023-05-01T02:34:44;98738.34;;;8.36;100.00
26807;BME280;14380;49.910;6.792;2023-05-01T02:37:11;98735.84;;;8.32;100.00
26807;BME280;14380;49.910;6.792;2023-05-01T02:39:39;98736.78;;;8.51;100.00
26807;BME280;14380;49.910;6.792;2023-05-01T02:42:07;98726.59;;;8.43;100.00
26807;BME280;14380;49.910;6.792;2023-05-01T02:44:38;98725.31;;;8.13;100.00
26807;BME280;14380;49.910;6.792;2023-05-01T02:47:05;98720.00;;;8.34;100.00
26807;BME280;14380;49.910;6.792;2023-05-01T02:49:34;98721.09;;;8.49;100.00
26807;BME280;14380;49.910;6.792;2023-05-01T02:52:01;98716.78;;;8.46;100.00
26807;BME280;14380;49.910;6.792;2023-05-01T02:54:29;98715.59;;;8.34;100.00
26807;BME280;14380;49.910;6.792;2023-05-01T02:56:57;98712.53;;;8.44;100.00
26807;BME280;14380;49.910;6.792;2023-05-01T02:59:24;98704.00;;;8.39;100.00
26807;BME280;14380;49.910;6.792;2023-05-01T03:01:50;98703.50;;;8.50;100.00
26807;BME280;14380;49.910;6.792;2023-05-01T03:04:17;98705.31;;;8.49;100.00
26807;BME280;14380;49.910;6.792;2023-05-01T03:06:43;98705.63;;;8.41;100.00
26807;BME280;14380;49.910;6.792;2023-05-01T03:09:10;98703.84;;;8.42;100.00
26807;BME280;14380;49.910;6.792;2023-05-01T03:11:37;98705.56;;;8.43;100.00
26807;BME280;14380;49.910;6.792;2023-05-01T03:14:04;98699.22;;;8.47;100.00
26807;BME280;14380;49.910;6.792;2023-05-01T03:16:31;98700.31;;;8.62;100.00
26807;BME280;14380;49.910;6.792;2023-05-01T03:18:58;98694.44;;;8.74;100.00
26807;BME280;14380;49.910;6.792;2023-05-01T03:21:24;98702.94;;;8.62;100.00
26807;BME280;14380;49.910;6.792;2023-05-01T03:23:51;98688.78;;;8.82;100.00
26807;BME280;14380;49.910;6.792;2023-05-01T03:26:17;98695.03;;;8.62;100.00
26807;BME280;14380;49.910;6.792;2023-05-01T03:28:44;98681.59;;;8.68;100.00
26807;BME280;14380;49.910;6.792;2023-05-01T03:31:12;98686.28;;;8.61;100.00
26807;BME280;14380;49.910;6.792;2023-05-01T03:33:41;98682.75;;;8.80;100.00
26807;BME280;14380;49.910;6.792;2023-05-01T03:36:08;98680.44;;;8.91;100.00
26807;BME280;14380;49.910;6.792;2023-05-01T03:38:35;98671.28;;;8.81;100.00
26807;BME280;14380;49.910;6.792;2023-05-01T03:41:01;98673.00;;;8.82;100.00
26807;BME280;14380;49.910;6.792;2023-05-01T03:43:29;98673.59;;;8.70;100.00
26807;BME280;14380;49.910;6.792;2023-05-01T03:45:57;98672.53;;;8.74;100.00
26807;BME280;14380;49.910;6.792;2023-05-01T03:48:25;98669.84;;;8.75;100.00
26807;BME280;14380;49.910;6.792;2023-05-01T03:50:51;98666.06;;;8.99;100.00
26807;BME280;14380;49.910;6.792;2023-05-01T03:53:18;98666.97;;;8.98;100.00
26807;BME280;14380;49.910;6.792;2023-05-01T03:55:45;98669.78;;;8.95;100.00
26807;BME280;14380;49.910;6.792;2023-05-01T03:58:11;98671.94;;;8.86;100.00
26807;BME280;14380;49.910;6.792;2023-05-01T04:00:38;98676.72;;;8.78;100.00
26807;BME280;14380;49.910;6.792;2023-05-01T04:03:06;98668.44;;;9.03;100.00
26807;BME280;14380;49.910;6.792;2023-05-01T04:05:34;98669.75;;;8.77;100.00
26807;BME280;14380;49.910;6.792;2023-05-01T04:08:00;98662.72;;;8.95;100.00
26807;BME280;14380;49.910;6.792;2023-05-01T04:10:28;98669.78;;;8.95;100.00
26807;BME280;14380;49.910;6.792;2023-05-01T04:12:55;98667.28;;;9.09;100.00
26807;BME280;14380;49.910;6.792;2023-05-01T04:15:21;98666.84;;;9.01;100.00
26807;BME280;14380;49.910;6.792;2023-05-01T04:17:48;98660.59;;;9.19;100.00
26807;BME280;14380;49.910;6.792;2023-05-01T04:20:15;98665.28;;;8.97;100.00
26807;BME280;14380;49.910;6.792;2023-05-01T04:22:44;98669.53;;;8.99;100.00
26807;BME280;14380;49.910;6.792;2023-05-01T04:25:11;98660.00;;;9.14;100.00
26807;BME280;14380;49.910;6.792;2023-05-01T04:27:37;98657.75;;;9.24;100.00
26807;BME280;14380;49.910;6.792;2023-05-01T04:30:05;98662.47;;;9.17;100.00
26807;BME280;14380;49.910;6.792;2023-05-01T04:32:32;98662.78;;;9.11;100.00
26807;BME280;14380;49.910;6.792;2023-05-01T04:34:59;98668.03;;;9.11;100.00
26807;BME280;14380;49.910;6.792;2023-05-01T04:37:26;98667.94;;;9.30;100.00
26807;BME280;14380;49.910;6.792;2023-05-01T04:39:54;98669.13;;;9.25;100.00
26807;BME280;14380;49.910;6.792;2023-05-01T04:42:20;98668.81;;;9.31;100.00
26807;BME280;14380;49.910;6.792;2023-05-01T04:44:47;98667.19;;;9.28;100.00
26807;BME280;14380;49.910;6.792;2023-05-01T04:47:13;98665.31;;;9.30;100.00
26807;BME280;14380;49.910;6.792;2023-05-01T04:49:40;98670.38;;;9.35;100.00
26807;BME280;14380;49.910;6.792;2023-05-01T04:52:06;98669.06;;;9.60;100.00
26807;BME280;14380;49.910;6.792;2023-05-01T04:54:33;98672.97;;;9.52;100.00
26807;BME280;14380;49.910;6.792;2023-05-01T04:57:01;98672.47;;;9.62;100.00
26807;BME280;14380;49.910;6.792;2023-05-01T04:59:28;98674.47;;;9.41;100.00
26807;BME280;14380;49.910;6.792;2023-05-01T05:01:55;98676.34;;;9.72;100.00
26807;BME280;14380;49.910;6.792;2023-05-01T05:04:21;98680.97;;;9.51;100.00
26807;BME280;14380;49.910;6.792;2023-05-01T05:06:48;98670.91;;;9.75;100.00
26807;BME280;14380;49.910;6.792;2023-05-01T05:09:15;98671.50;;;9.80;100.00
26807;BME280;14380;49.910;6.792;2023-05-01T05:11:42;98670.09;;;9.57;100.00
26807;BME280;14380;49.910;6.792;2023-05-01T05:14:10;98675.25;;;9.76;100.00
26807;BME280;14380;49.910;6.792;2023-05-01T05:16:37;98672.66;;;9.75;100.00
26807;BME280;14380;49.910;6.792;2023-05-01T05:19:03;98674.91;;;9.82;100.00
26807;BME280;14380;49.910;6.792;2023-05-01T05:21:30;98672.78;;;9.89;100.00
26807;BME280;14380;49.910;6.792;2023-05-01T05:23:56;98670.66;;;9.96;100.00
26807;BME280;14380;49.910;6.792;2023-05-01T05:26:23;98672.47;;;9.95;100.00
26807;BME280;14380;49.910;6.792;2023-05-01T05:28:51;98670.44;;;10.01;100.00
26807;BME280;14380;49.910;6.792;2023-05-01T05:31:20;98670.88;;;9.93;100.00
26807;BME280;14380;49.910;6.792;2023-05-01T05:33:46;98674.50;;;10.06;100.00
26807;BME280;14380;49.910;6.792;2023-05-01T05:36:13;98675.81;;;10.15;100.00
26807;BME280;14380;49.910;6.792;2023-05-01T05:38:39;98678.03;;;10.23;100.00
26807;BME280;14380;49.910;6.792;2023-05-01T05:41:06;98670.56;;;10.47;100.00
26807;BME280;14380;49.910;6.792;2023-05-01T05:43:32;98672.41;;;10.13;100.00
26807;BME280;14380;49.910;6.792;2023-05-01T05:45:59;98671.88;;;10.06;100.00
26807;BME280;14380;49.910;6.792;2023-05-01T05:48:27;98673.94;;;10.33;100.00
26807;BME280;14380;49.910;6.792;2023-05-01T05:50:53;98669.00;;;10.59;100.00
26807;BME280;14380;49.910;6.792;2023-05-01T05:53:21;98667.41;;;10.56;100.00
26807;BME280;14380;49.910;6.792;2023-05-01T05:55:47;98661.94;;;10.60;100.00
26807;BME280;14380;49.910;6.792;2023-05-01T05:58:14;98655.63;;;10.62;100.00
26807;BME280;14380;49.910;6.792;2023-05-01T06:00:45;98657.28;;;10.79;100.00
26807;BME280;14380;49.910;6.792;2023-05-01T06:03:12;98654.19;;;11.03;100.00
26807;BME280;14380;49.910;6.792;2023-05-01T06:05:40;98656.75;;;11.34;100.00
26807;BME280;14380;49.910;6.792;2023-05-01T06:08:07;98653.97;;;11.51;100.00
26807;BME280;14380;49.910;6.792;2023-05-01T06:10:35;98652.72;;;11.71;100.00
26807;BME280;14380;49.910;6.792;2023-05-01T06:13:03;98644.41;;;12.07;100.00
26807;BME280;14380;49.910;6.792;2023-05-01T06:15:30;98644.06;;;12.68;100.00
26807;BME280;14380;49.910;6.792;2023-05-01T06:17:57;98649.31;;;12.55;100.00
26807;BME280;14380;49.910;6.792;2023-05-01T06:20:23;98643.16;;;13.07;99.70
26807;BME280;14380;49.910;6.792;2023-05-01T06:22:51;98642.41;;;13.05;100.00
26807;BME280;14380;49.910;6.792;2023-05-01T06:25:18;98637.16;;;13.18;100.00
26807;BME280;14380;49.910;6.792;2023-05-01T06:27:44;98640.25;;;13.51;93.73
26807;BME280;14380;49.910;6.792;2023-05-01T06:30:11;98637.16;;;13.70;92.28
26807;BME280;14380;49.910;6.792;2023-05-01T06:32:38;98637.91;;;13.85;93.20
26807;BME280;14380;49.910;6.792;2023-05-01T06:35:06;98636.81;;;14.01;88.57
26807;BME280;14380;49.910;6.792;2023-05-01T06:37:33;98639.03;;;14.07;86.66
26807;BME280;14380;49.910;6.792;2023-05-01T06:40:01;98634.38;;;14.35;89.84
26807;BME280;14380;49.910;6.792;2023-05-01T06:42:28;98634.13;;;14.62;88.31
26807;BME280;14380;49.910;6.792;2023-05-01T06:44:55;98633.63;;;14.70;86.64
26807;BME280;14380;49.910;6.792;2023-05-01T06:47:22;98632.44;;;14.61;84.54
26807;BME280;14380;49.910;6.792;2023-05-01T06:49:48;98630.88;;;14.58;89.35
26807;BME280;14380;49.910;6.792;2023-05-01T06:52:15;98633.31;;;14.62;88.68
26807;BME280;14380;49.910;6.792;2023-05-01T06:54:41;98633.06;;;14.65;84.94
26807;BME280;14380;49.910;6.792;2023-05-01T06:57:09;98633.97;;;14.52;85.37
26807;BME280;14380;49.910;6.792;2023-05-01T06:59:36;98628.69;;;15.12;85.90
26807;BME280;14380;49.910;6.792;2023-05-01T07:02:02;98633.31;;;15.33;82.57
26807;BME280;14380;49.910;6.792;2023-05-01T07:04:30;98629.09;;;15.42;82.59
26807;BME280;14380;49.910;6.792;2023-05-01T07:06:57;98625.00;;;15.60;78.27
26807;BME280;14380;49.910;6.792;2023-05-01T07:09:23;98627.78;;;15.48;80.70
26807;BME280;14380;49.910;6.792;2023-05-01T07:11:50;98626.06;;;15.35;77.86
26807;BME280;14380;49.910;6.792;2023-05-01T07:14:18;98627.53;;;15.62;80.67
26807;BME280;14380;49.910;6.792;2023-05-01T07:16:44;98620.97;;;16.12;79.82
26807;BME280;14380;49.910;6.792;2023-05-01T07:19:11;98629.34;;;15.84;80.11
26807;BME280;14380;49.910;6.792;2023-05-01T07:21:39;98627.91;;;15.69;80.32
26807;BME280;14380;49.910;6.792;2023-05-01T07:24:06;98630.13;;;15.86;79.60
26807;BME280;14380;49.910;6.792;2023-05-01T07:26:33;98625.09;;;15.70;78.48
26807;BME280;14380;49.910;6.792;2023-05-01T07:28:59;98632.25;;;15.58;78.84
26807;BME280;14380;49.910;6.792;2023-05-01T07:31:27;98636.47;;;15.72;81.24
26807;BME280;14380;49.910;6.792;2023-05-01T07:33:54;98628.88;;;15.68;78.46
26807;BME280;14380;49.910;6.792;2023-05-01T07:36:21;98624.25;;;15.58;81.64
26807;BME280;14380;49.910;6.792;2023-05-01T07:38:48;98626.56;;;15.52;80.55
26807;BME280;14380;49.910;6.792;2023-05-01T07:41:14;98621.22;;;15.74;80.60
26807;BME280;14380;49.910;6.792;2023-05-01T07:43:41;98621.16;;;15.87;81.96
26807;BME280;14380;49.910;6.792;2023-05-01T07:46:08;98618.22;;;15.90;79.27
26807;BME280;14380;49.910;6.792;2023-05-01T07:48:36;98619.66;;;16.29;80.81
26807;BME280;14380;49.910;6.792;2023-05-01T07:51:03;98617.53;;;16.44;82.88
26807;BME280;14380;49.910;6.792;2023-05-01T07:53:29;98615.38;;;16.70;78.89
26807;BME280;14380;49.910;6.792;2023-05-01T07:56:03;98608.78;;;16.53;76.80
26807;BME280;14380;49.910;6.792;2023-05-01T07:58:31;98613.72;;;16.90;79.27
26807;BME280;14380;49.910;6.792;2023-05-01T08:00:59;98605.81;;;17.21;76.51
26807;BME280;14380;49.910;6.792;2023-05-01T08:03:26;98615.81;;;17.08;75.83
26807;BME280;14380;49.910;6.792;2023-05-01T08:05:55;98617.59;;;16.98;77.50
26807;BME280;14380;49.910;6.792;2023-05-01T08:08:21;98614.28;;;17.58;75.09
26807;BME280;14380;49.910;6.792;2023-05-01T08:10:49;98612.34;;;17.38;71.99
26807;BME280;14380;49.910;6.792;2023-05-01T08:13:16;98605.44;;;17.57;73.45
26807;BME280;14380;49.910;6.792;2023-05-01T08:15:43;98616.50;;;17.83;73.50
26807;BME280;14380;49.910;6.792;2023-05-01T08:18:10;98616.63;;;17.82;73.27
26807;BME280;14380;49.910;6.792;2023-05-01T08:20:36;98609.88;;;18.09;73.91
26807;BME280;14380;49.910;6.792;2023-05-01T08:23:04;98610.44;;;18.12;72.27
26807;BME280;14380;49.910;6.792;2023-05-01T08:25:31;98607.03;;;18.01;67.98
26807;BME280;14380;49.910;6.792;2023-05-01T08:27:57;98610.78;;;18.49;65.34
26807;BME280;14380;49.910;6.792;2023-05-01T08:30:24;98611.28;;;17.82;68.77
26807;BME280;14380;49.910;6.792;2023-05-01T08:32:51;98612.59;;;17.88;67.28
26807;BME280;14380;49.910;6.792;2023-05-01T08:35:18;98606.69;;;17.94;69.79
26807;BME280;14380;49.910;6.792;2023-05-01T08:37:44;98604.59;;;18.58;71.39
26807;BME280;14380;49.910;6.792;2023-05-01T08:40:13;98601.88;;;18.38;68.02
26807;BME280;14380;49.910;6.792;2023-05-01T08:42:40;98606.00;;;18.52;69.68
26807;BME280;14380;49.910;6.792;2023-05-01T08:45:07;98604.19;;;18.72;70.99
26807;BME280;14380;49.910;6.792;2023-05-01T08:47:35;98599.38;;;18.76;67.98
26807;BME280;14380;49.910;6.792;2023-05-01T08:50:03;98595.16;;;19.03;69.96
26807;BME280;14380;49.910;6.792;2023-05-01T08:52:31;98595.69;;;19.16;63.78
26807;BME280;14380;49.910;6.792;2023-05-01T08:54:58;98590.34;;;18.87;67.32
26807;BME280;14380;49.910;6.792;2023-05-01T08:57:29;98592.50;;;19.60;64.59
26807;BME280;14380;49.910;6.792;2023-05-01T08:59:56;98593.91;;;19.55;66.05
26807;BME280;14380;49.910;6.792;2023-05-01T09:02:24;98600.06;;;19.17;65.42
26807;BME280;14380;49.910;6.792;2023-05-01T09:04:53;98592.94;;;19.84;63.81
26807;BME280;14380;49.910;6.792;2023-05-01T09:07:20;98603.25;;;19.41;65.89
26807;BME280;14380;49.910;6.792;2023-05-01T09:09:46;98599.38;;;19.63;64.80
26807;BME280;14380;49.910;6.792;2023-05-01T09:12:20;98597.44;;;19.55;67.19
26807;BME280;14380;49.910;6.792;2023-05-01T09:14:49;98594.47;;;19.86;68.15
26807;BME280;14380;49.910;6.792;2023-05-01T09:17:16;98591.84;;;19.39;67.12
26807;BME280;14380;49.910;6.792;2023-05-01T09:19:42;98594.72;;;19.65;65.26
26807;BME280;14380;49.910;6.792;2023-05-01T09:22:09;98585.38;;;19.69;67.36
26807;BME280;14380;49.910;6.792;2023-05-01T09:24:36;98584.47;;;19.51;64.41
26807;BME280;14380;49.910;6.792;2023-05-01T09:27:02;98584.22;;;19.82;64.15
26807;BME280;14380;49.910;6.792;2023-05-01T09:29:37;98583.34;;;19.81;67.86
26807;BME280;14380;49.910;6.792;2023-05-01T09:32:16;98584.94;;;20.30;64.72
26807;BME280;14380;49.910;6.792;2023-05-01T09:34:45;98582.34;;;19.92;64.54
26807;BME280;14380;49.910;6.792;2023-05-01T09:37:23;98581.06;;;20.42;64.38
26807;BME280;14380;49.910;6.792;2023-05-01T09:40:09;98573.16;;;20.77;64.08
26807;BME280;14380;49.910;6.792;2023-05-01T09:42:37;98576.00;;;20.57;64.88
26807;BME280;14380;49.910;6.792;2023-05-01T09:45:05;98572.22;;;20.68;63.56
26807;BME280;14380;49.910;6.792;2023-05-01T09:47:33;98570.59;;;20.03;64.63
26807;BME280;14380;49.910;6.792;2023-05-01T09:50:00;98573.91;;;20.51;62.84
26807;BME280;14380;49.910;6.792;2023-05-01T09:52:27;98574.59;;;20.53;62.24
26807;BME280;14380;49.910;6.792;2023-05-01T09:55:10;98575.00;;;20.58;63.67
26807;BME280;14380;49.910;6.792;2023-05-01T09:57:38;98573.06;;;21.05;63.97
26807;BME280;14380;49.910;6.792;2023-05-01T10:00:05;98572.56;;;21.09;63.76
26807;BME280;14380;49.910;6.792;2023-05-01T10:02:34;98572.06;;;21.06;66.10
26807;BME280;14380;49.910;6.792;2023-05-01T10:05:01;98568.22;;;20.72;61.60
26807;BME280;14380;49.910;6.792;2023-05-01T10:07:28;98575.25;;;21.09;61.83
26807;BME280;14380;49.910;6.792;2023-05-01T10:09:55;98575.06;;;20.48;61.66
26807;BME280;14380;49.910;6.792;2023-05-01T10:12:22;98592.56;;;20.06;64.31
26807;BME280;14380;49.910;6.792;2023-05-01T10:14:51;98577.13;;;19.63;64.54
26807;BME280;14380;49.910;6.792;2023-05-01T10:17:18;98587.97;;;19.04;64.83
26807;BME280;14380;49.910;6.792;2023-05-01T10:19:46;98591.38;;;18.96;65.29
26807;BME280;14380;49.910;6.792;2023-05-01T10:22:13;98588.41;;;18.69;65.57
26807;BME280;14380;49.910;6.792;2023-05-01T10:24:41;98588.97;;;18.53;64.88
26807;BME280;14380;49.910;6.792;2023-05-01T10:27:11;98596.69;;;18.56;64.87
26807;BME280;14380;49.910;6.792;2023-05-01T10:29:39;98592.59;;;18.42;67.41
26807;BME280;14380;49.910;6.792;2023-05-01T10:32:07;98589.25;;;18.60;67.23
26807;BME280;14380;49.910;6.792;2023-05-01T10:34:37;98588.13;;;18.72;68.12
26807;BME280;14380;49.910;6.792;2023-05-01T10:37:10;98586.69;;;18.58;66.04
26807;BME280;14380;49.910;6.792;2023-05-01T10:39:38;98582.78;;;18.72;64.13
26807;BME280;14380;49.910;6.792;2023-05-01T10:42:06;98590.53;;;18.76;64.41
26807;BME280;14380;49.910;6.792;2023-05-01T10:44:36;98583.31;;;18.56;66.91
26807;BME280;14380;49.910;6.792;2023-05-01T10:50:06;98583.31;;;18.86;64.18
26807;BME280;14380;49.910;6.792;2023-05-01T10:55:35;98587.63;;;19.26;65.70
26807;BME280;14380;49.910;6.792;2023-05-01T10:58:02;98581.06;;;19.11;66.60
26807;BME280;14380;49.910;6.792;2023-05-01T11:00:29;98581.78;;;19.13;65.66
26807;BME280;14380;49.910;6.792;2023-05-01T11:03:33;98580.09;;;19.50;65.48
26807;BME280;14380;49.910;6.792;2023-05-01T11:06:04;98577.34;;;19.31;64.22
26807;BME280;14380;49.910;6.792;2023-05-01T11:08:32;98572.41;;;19.37;65.89
26807;BME280;14380;49.910;6.792;2023-05-01T11:11:44;98576.13;;;19.64;62.81
26807;BME280;14380;49.910;6.792;2023-05-01T11:14:13;98571.13;;;19.69;63.30
26807;BME280;14380;49.910;6.792;2023-05-01T11:16:41;98566.63;;;19.41;63.00
26807;BME280;14380;49.910;6.792;2023-05-01T11:19:09;98568.91;;;19.26;64.08
26807;BME280;14380;49.910;6.792;2023-05-01T11:21:37;98570.16;;;19.70;63.10
26807;BME280;14380;49.910;6.792;2023-05-01T11:24:06;98574.56;;;19.99;64.63
26807;BME280;14380;49.910;6.792;2023-05-01T11:26:37;98572.31;;;19.94;62.29
26807;BME280;14380;49.910;6.792;2023-05-01T11:29:05;98571.00;;;20.08;62.42
26807;BME280;14380;49.910;6.792;2023-05-01T11:31:32;98562.97;;;19.98;61.78
26807;BME280;14380;49.910;6.792;2023-05-01T11:33:59;98564.47;;;20.29;60.09
26807;BME280;14380;49.910;6.792;2023-05-01T11:36:26;98566.16;;;20.30;62.35
26807;BME280;14380;49.910;6.792;2023-05-01T11:38:54;98563.09;;;20.06;61.60
26807;BME280;14380;49.910;6.792;2023-05-01T11:41:23;98559.19;;;20.01;61.17
26807;BME280;14380;49.910;6.792;2023-05-01T11:43:52;98568.63;;;19.95;59.92
26807;BME280;14380;49.910;6.792;2023-05-01T11:46:34;98562.09;;;20.08;59.48
26807;BME280;14380;49.910;6.792;2023-05-01T11:49:01;98560.34;;;19.60;60.98
26807;BME280;14380;49.910;6.792;2023-05-01T11:51:29;98553.72;;;19.65;58.85
26807;BME280;14380;49.910;6.792;2023-05-01T11:53:59;98552.16;;;19.62;61.88
26807;BME280;14380;49.910;6.792;2023-05-01T11:56:25;98552.06;;;19.82;61.28
26807;BME280;14380;49.910;6.792;2023-05-01T11:58:54;98553.31;;;19.59;59.51
26807;BME280;14380;49.910;6.792;2023-05-01T12:01:32;98555.97;;;19.87;62.26
26807;BME280;14380;49.910;6.792;2023-05-01T12:03:59;98550.97;;;19.74;61.32
26807;BME280;14380;49.910;6.792;2023-05-01T12:06:34;98558.56;;;19.79;60.54
26807;BME280;14380;49.910;6.792;2023-05-01T12:09:04;98552.34;;;19.88;62.70
26807;BME280;14380;49.910;6.792;2023-05-01T12:11:31;98556.56;;;19.81;59.60
26807;BME280;14380;49.910;6.792;2023-05-01T12:13:59;98559.28;;;20.27;61.76
26807;BME280;14380;49.910;6.792;2023-05-01T12:16:26;98557.75;;;20.25;59.63
26807;BME280;14380;49.910;6.792;2023-05-01T12:18:53;98546.31;;;20.23;60.22
26807;BME280;14380;49.910;6.792;2023-05-01T12:21:20;98545.94;;;20.54;58.49
26807;BME280;14380;49.910;6.792;2023-05-01T12:23:47;98540.25;;;21.19;60.42
26807;BME280;14380;49.910;6.792;2023-05-01T12:26:15;98533.00;;;21.46;59.97
26807;BME280;14380;49.910;6.792;2023-05-01T12:28:52;98531.25;;;22.23;59.74
26807;BME280;14380;49.910;6.792;2023-05-01T12:31:20;98528.31;;;21.91;56.84
26807;BME280;14380;49.910;6.792;2023-05-01T12:33:52;98535.81;;;21.71;55.97
26807;BME280;14380;49.910;6.792;2023-05-01T12:36:20;98536.47;;;21.04;59.54
26807;BME280;14380;49.910;6.792;2023-05-01T12:38:54;98540.34;;;20.65;58.48
26807;BME280;14380;49.910;6.792;2023-05-01T12:41:31;98535.19;;;20.54;58.82
26807;BME280;14380;49.910;6.792;2023-05-01T12:43:57;98541.50;;;20.44;58.00
26807;BME280;14380;49.910;6.792;2023-05-01T12:46:26;98542.34;;;20.09;58.76
26807;BME280;14380;49.910;6.792;2023-05-01T12:48:53;98547.72;;;19.71;61.37
26807;BME280;14380;49.910;6.792;2023-05-01T12:51:20;98549.41;;;19.72;60.06
26807;BME280;14380;49.910;6.792;2023-05-01T12:53:47;98548.66;;;19.89;63.06
26807;BME280;14380;49.910;6.792;2023-05-01T12:56:20;98552.66;;;19.75;63.30
26807;BME280;14380;49.910;6.792;2023-05-01T12:58:48;98566.41;;;19.05;66.52
26807;BME280;14380;49.910;6.792;2023-05-01T13:01:23;98575.22;;;17.57;74.38
26807;BME280;14380;49.910;6.792;2023-05-01T13:03:52;98575.09;;;17.06;92.06
26807;BME280;14380;49.910;6.792;2023-05-01T13:06:30;98563.56;;;16.84;100.00
26807;BME280;14380;49.910;6.792;2023-05-01T13:09:06;98554.31;;;16.67;100.00
26807;BME280;14380;49.910;6.792;2023-05-01T13:14:09;98553.63;;;17.07;100.00
26807;BME280;14380;49.910;6.792;2023-05-01T13:16:43;98547.25;;;16.77;100.00
26807;BME280;14380;49.910;6.792;2023-05-01T13:19:12;98551.63;;;17.00;100.00